sensor_id;sensor_type;location;lat;lon;timestamp;P1;durP1;ratioP1;P2;durP2;ratioP2
21281;SDS011;10800;53.096;18.328;2023-04-24T00:09:52;7.53;;;5.50;;
21281;SDS011;10800;53.096;18.328;2023-04-24T00:15:41;10.90;;;6.13;;
21281;SDS011;10800;53.096;18.328;2023-04-24T00:21:11;10.70;;;6.43;;
21281;SDS011;10800;53.096;18.328;2023-04-24T00:27:08;16.27;;;6.47;;
21281;SDS011;10800;53.096;18.328;2023-04-24T00:33:06;10.77;;;6.57;;
21281;SDS011;10800;53.096;18.328;2023-04-24T00:38:36;10.60;;;6.37;;
21281;SDS011;10800;53.096;18.328;2023-04-24T00:50:31;10.83;;;6.23;;
21281;SDS011;10800;53.096;18.328;2023-04-24T00:56:02;13.53;;;6.30;;
21281;SDS011;10800;53.096;18.328;2023-04-24T01:01:47;11.33;;;6.47;;
21281;SDS011;10800;53.096;18.328;2023-04-24T01:07:27;12.63;;;6.13;;
21281;SDS011;10800;53.096;18.328;2023-04-24T01:13:22;16.83;;;7.93;;
21281;SDS011;10800;53.096;18.328;2023-04-24T01:19:11;9.90;;;6.60;;
21281;SDS011;10800;53.096;18.328;2023-04-24T01:25:14;14.50;;;7.27;;
21281;SDS011;10800;53.096;18.328;2023-04-24T01:31:06;10.53;;;6.77;;
21281;SDS011;10800;53.096;18.328;2023-04-24T01:37:05;12.20;;;6.67;;
21281;SDS011;10800;53.096;18.328;2023-04-24T01:42:58;12.80;;;7.20;;
21281;SDS011;10800;53.096;18.328;2023-04-24T01:48:46;16.40;;;9.20;;
21281;SDS011;10800;53.096;18.328;2023-04-24T01:54:38;15.13;;;8.53;;
21281;SDS011;10800;53.096;18.328;2023-04-24T02:00:31;12.73;;;7.43;;
21281;SDS011;10800;53.096;18.328;2023-04-24T02:06:15;17.13;;;7.90;;
21281;SDS011;10800;53.096;18.328;2023-04-24T02:12:05;14.13;;;7.87;;
21281;SDS011;10800;53.096;18.328;2023-04-24T02:18:00;14.57;;;6.77;;
21281;SDS011;10800;53.096;18.328;2023-04-24T02:23:53;16.33;;;9.07;;
21281;SDS011;10800;53.096;18.328;2023-04-24T02:29:27;19.33;;;8.13;;
21281;SDS011;10800;53.096;18.328;2023-04-24T02:35:01;15.67;;;7.93;;
21281;SDS011;10800;53.096;18.328;2023-04-24T02:40:36;14.90;;;7.73;;
21281;SDS011;10800;53.096;18.328;2023-04-24T02:46:16;15.37;;;9.40;;
21281;SDS011;10800;53.096;18.328;2023-04-24T02:52:11;12.73;;;7.87;;
21281;SDS011;10800;53.096;18.328;2023-04-24T02:58:02;16.20;;;8.83;;
21281;SDS011;10800;53.096;18.328;2023-04-24T03:04:05;18.17;;;8.63;;
21281;SDS011;10800;53.096;18.328;2023-04-24T03:10:06;10.47;;;6.93;;
21281;SDS011;10800;53.096;18.328;2023-04-24T03:15:56;17.20;;;8.70;;
21281;SDS011;10800;53.096;18.328;2023-04-24T03:21:25;15.07;;;7.90;;
21281;SDS011;10800;53.096;18.328;2023-04-24T03:27:15;13.30;;;7.90;;
21281;SDS011;10800;53.096;18.328;2023-04-24T03:32:54;15.57;;;8.40;;
21281;SDS011;10800;53.096;18.328;2023-04-24T03:38:45;13.00;;;7.77;;
21281;SDS011;10800;53.096;18.328;2023-04-24T03:44:38;19.53;;;9.20;;
21281;SDS011;10800;53.096;18.328;2023-04-24T03:50:17;15.37;;;7.70;;
21281;SDS011;10800;53.096;18.328;2023-04-24T03:56:01;14.67;;;7.87;;
21281;SDS011;10800;53.096;18.328;2023-04-24T04:01:49;12.57;;;6.97;;
21281;SDS011;10800;53.096;18.328;2023-04-24T04:07:29;18.40;;;8.93;;
21281;SDS011;10800;53.096;18.328;2023-04-24T04:13:00;23.03;;;10.17;;
21281;SDS011;10800;53.096;18.328;2023-04-24T04:18:58;21.70;;;10.40;;
21281;SDS011;10800;53.096;18.328;2023-04-24T04:30:11;14.73;;;8.10;;
21281;SDS011;10800;53.096;18.328;2023-04-24T04:35:55;16.20;;;7.87;;
21281;SDS011;10800;53.096;18.328;2023-04-24T04:41:05;19.47;;;7.70;;
21281;SDS011;10800;53.096;18.328;2023-04-24T04:46:15;19.20;;;9.50;;
21281;SDS011;10800;53.096;18.328;2023-04-24T04:52:10;21.37;;;9.07;;
21281;SDS011;10800;53.096;18.328;2023-04-24T04:57:40;15.77;;;7.80;;
21281;SDS011;10800;53.096;18.328;2023-04-24T05:03:02;26.63;;;9.10;;
21281;SDS011;10800;53.096;18.328;2023-04-24T05:08:36;18.93;;;8.43;;
21281;SDS011;10800;53.096;18.328;2023-04-24T05:13:45;18.73;;;8.93;;
21281;SDS011;10800;53.096;18.328;2023-04-24T05:18:52;14.80;;;7.63;;
21281;SDS011;10800;53.096;18.328;2023-04-24T05:24:23;17.33;;;9.50;;
21281;SDS011;10800;53.096;18.328;2023-04-24T05:29:34;15.80;;;7.73;;
21281;SDS011;10800;53.096;18.328;2023-04-24T05:34:49;13.43;;;7.47;;
21281;SDS011;10800;53.096;18.328;2023-04-24T05:40:00;13.90;;;7.60;;
21281;SDS011;10800;53.096;18.328;2023-04-24T05:45:23;24.10;;;9.23;;
21281;SDS011;10800;53.096;18.328;2023-04-24T05:50:45;11.47;;;6.23;;
21281;SDS011;10800;53.096;18.328;2023-04-24T05:56:25;19.20;;;9.57;;
21281;SDS011;10800;53.096;18.328;2023-04-24T06:01:35;13.77;;;7.63;;
21281;SDS011;10800;53.096;18.328;2023-04-24T06:06:49;14.77;;;7.23;;
21281;SDS011;10800;53.096;18.328;2023-04-24T06:11:59;13.67;;;7.73;;
21281;SDS011;10800;53.096;18.328;2023-04-24T06:17:08;11.70;;;7.20;;
21281;SDS011;10800;53.096;18.328;2023-04-24T06:22:14;14.17;;;6.80;;
21281;SDS011;10800;53.096;18.328;2023-04-24T06:27:23;18.17;;;7.43;;
21281;SDS011;10800;53.096;18.328;2023-04-24T06:32:29;12.43;;;7.13;;
21281;SDS011;10800;53.096;18.328;2023-04-24T06:37:34;15.97;;;7.20;;
21281;SDS011;10800;53.096;18.328;2023-04-24T06:42:40;12.10;;;6.97;;
21281;SDS011;10800;53.096;18.328;2023-04-24T06:47:46;13.70;;;7.13;;
21281;SDS011;10800;53.096;18.328;2023-04-24T06:52:52;14.93;;;8.17;;
21281;SDS011;10800;53.096;18.328;2023-04-24T06:57:57;12.20;;;7.40;;
21281;SDS011;10800;53.096;18.328;2023-04-24T07:03:04;15.10;;;6.63;;
21281;SDS011;10800;53.096;18.328;2023-04-24T07:08:10;16.40;;;6.73;;
21281;SDS011;10800;53.096;18.328;2023-04-24T07:13:16;13.87;;;6.73;;
21281;SDS011;10800;53.096;18.328;2023-04-24T07:18:22;10.80;;;4.73;;
21281;SDS011;10800;53.096;18.328;2023-04-24T07:23:28;9.60;;;5.67;;
21281;SDS011;10800;53.096;18.328;2023-04-24T07:28:34;8.63;;;5.13;;
21281;SDS011;10800;53.096;18.328;2023-04-24T07:33:40;6.97;;;4.23;;
21281;SDS011;10800;53.096;18.328;2023-04-24T07:38:46;8.20;;;4.47;;
21281;SDS011;10800;53.096;18.328;2023-04-24T07:43:55;7.43;;;4.50;;
21281;SDS011;10800;53.096;18.328;2023-04-24T07:49:03;9.40;;;4.40;;
21281;SDS011;10800;53.096;18.328;2023-04-24T07:54:35;7.60;;;4.73;;
21281;SDS011;10800;53.096;18.328;2023-04-24T07:59:46;7.10;;;4.57;;
21281;SDS011;10800;53.096;18.328;2023-04-24T08:05:02;12.17;;;4.70;;
21281;SDS011;10800;53.096;18.328;2023-04-24T08:10:40;9.17;;;5.10;;
21281;SDS011;10800;53.096;18.328;2023-04-24T08:16:07;7.87;;;4.10;;
21281;SDS011;10800;53.096;18.328;2023-04-24T08:21:42;5.13;;;3.40;;
21281;SDS011;10800;53.096;18.328;2023-04-24T08:27:29;10.37;;;5.60;;
21281;SDS011;10800;53.096;18.328;2023-04-24T08:38:37;7.27;;;4.90;;
21281;SDS011;10800;53.096;18.328;2023-04-24T08:44:15;5.97;;;4.20;;
21281;SDS011;10800;53.096;18.328;2023-04-24T08:49:32;8.70;;;4.50;;
21281;SDS011;10800;53.096;18.328;2023-04-24T08:55:07;7.93;;;4.97;;
21281;SDS011;10800;53.096;18.328;2023-04-24T09:00:55;7.30;;;3.97;;
21281;SDS011;10800;53.096;18.328;2023-04-24T09:06:32;6.73;;;4.20;;
21281;SDS011;10800;53.096;18.328;2023-04-24T09:18:06;6.90;;;3.90;;
21281;SDS011;10800;53.096;18.328;2023-04-24T09:24:00;4.47;;;3.53;;
21281;SDS011;10800;53.096;18.328;2023-04-24T09:29:59;5.93;;;3.70;;
21281;SDS011;10800;53.096;18.328;2023-04-24T09:35:39;5.63;;;3.33;;
21281;SDS011;10800;53.096;18.328;2023-04-24T09:41:06;3.77;;;2.80;;
21281;SDS011;10800;53.096;18.328;2023-04-24T09:46:38;4.53;;;2.50;;
21281;SDS011;10800;53.096;18.328;2023-04-24T09:52:09;7.97;;;3.07;;
21281;SDS011;10800;53.096;18.328;2023-04-24T09:57:25;3.40;;;2.77;;
21281;SDS011;10800;53.096;18.328;2023-04-24T10:02:40;3.73;;;2.47;;
21281;SDS011;10800;53.096;18.328;2023-04-24T10:08:10;3.70;;;2.53;;
21281;SDS011;10800;53.096;18.328;2023-04-24T10:13:57;6.87;;;2.67;;
21281;SDS011;10800;53.096;18.328;2023-04-24T10:19:18;3.47;;;3.07;;
21281;SDS011;10800;53.096;18.328;2023-04-24T10:24:53;5.97;;;3.53;;
21281;SDS011;10800;53.096;18.328;2023-04-24T10:30:13;3.93;;;2.90;;
21281;SDS011;10800;53.096;18.328;2023-04-24T10:35:41;8.67;;;3.07;;
21281;SDS011;10800;53.096;18.328;2023-04-24T10:41:11;5.80;;;3.80;;
21281;SDS011;10800;53.096;18.328;2023-04-24T10:46:54;4.67;;;3.30;;
21281;SDS011;10800;53.096;18.328;2023-04-24T10:52:21;7.30;;;3.97;;
21281;SDS011;10800;53.096;18.328;2023-04-24T10:58:03;6.83;;;3.73;;
21281;SDS011;10800;53.096;18.328;2023-04-24T11:09:16;5.57;;;3.43;;
21281;SDS011;10800;53.096;18.328;2023-04-24T11:14:26;8.30;;;3.93;;
21281;SDS011;10800;53.096;18.328;2023-04-24T11:20:03;7.80;;;3.20;;
21281;SDS011;10800;53.096;18.328;2023-04-24T11:25:10;8.00;;;5.07;;
21281;SDS011;10800;53.096;18.328;2023-04-24T11:30:33;8.00;;;4.10;;
21281;SDS011;10800;53.096;18.328;2023-04-24T11:36:07;5.70;;;3.77;;
21281;SDS011;10800;53.096;18.328;2023-04-24T11:41:39;5.10;;;3.80;;
21281;SDS011;10800;53.096;18.328;2023-04-24T11:46:52;8.27;;;4.53;;
21281;SDS011;10800;53.096;18.328;2023-04-24T11:52:28;7.63;;;4.50;;
21281;SDS011;10800;53.096;18.328;2023-04-24T11:57:43;11.93;;;4.60;;
21281;SDS011;10800;53.096;18.328;2023-04-24T12:08:50;8.73;;;4.50;;
21281;SDS011;10800;53.096;18.328;2023-04-24T12:14:10;5.30;;;4.20;;
21281;SDS011;10800;53.096;18.328;2023-04-24T12:19:25;8.93;;;5.40;;
21281;SDS011;10800;53.096;18.328;2023-04-24T12:25:00;14.67;;;5.33;;
21281;SDS011;10800;53.096;18.328;2023-04-24T12:30:53;6.63;;;4.97;;
21281;SDS011;10800;53.096;18.328;2023-04-24T12:36:39;9.43;;;5.17;;
21281;SDS011;10800;53.096;18.328;2023-04-24T12:41:50;8.30;;;5.50;;
21281;SDS011;10800;53.096;18.328;2023-04-24T12:47:05;11.23;;;6.43;;
21281;SDS011;10800;53.096;18.328;2023-04-24T12:57:55;6.77;;;4.83;;
21281;SDS011;10800;53.096;18.328;2023-04-24T13:03:35;8.17;;;4.00;;
21281;SDS011;10800;53.096;18.328;2023-04-24T13:09:03;5.23;;;3.67;;
21281;SDS011;10800;53.096;18.328;2023-04-24T13:14:19;6.43;;;3.67;;
21281;SDS011;10800;53.096;18.328;2023-04-24T13:19:45;5.00;;;3.30;;
21281;SDS011;10800;53.096;18.328;2023-04-24T13:25:27;3.33;;;2.80;;
21281;SDS011;10800;53.096;18.328;2023-04-24T13:30:59;6.87;;;3.33;;
21281;SDS011;10800;53.096;18.328;2023-04-24T13:36:09;5.87;;;3.10;;
21281;SDS011;10800;53.096;18.328;2023-04-24T13:41:23;5.40;;;3.53;;
21281;SDS011;10800;53.096;18.328;2023-04-24T13:46:39;6.53;;;3.17;;
21281;SDS011;10800;53.096;18.328;2023-04-24T13:51:57;6.70;;;3.83;;
21281;SDS011;10800;53.096;18.328;2023-04-24T13:57:15;10.33;;;4.00;;
21281;SDS011;10800;53.096;18.328;2023-04-24T14:02:27;11.17;;;4.43;;
21281;SDS011;10800;53.096;18.328;2023-04-24T14:07:50;4.73;;;3.60;;
21281;SDS011;10800;53.096;18.328;2023-04-24T14:12:58;5.50;;;3.90;;
21281;SDS011;10800;53.096;18.328;2023-04-24T14:18:06;10.20;;;5.10;;
21281;SDS011;10800;53.096;18.328;2023-04-24T14:23:19;6.27;;;4.07;;
21281;SDS011;10800;53.096;18.328;2023-04-24T14:34:03;5.33;;;3.93;;
21281;SDS011;10800;53.096;18.328;2023-04-24T14:39:13;7.07;;;4.13;;
21281;SDS011;10800;53.096;18.328;2023-04-24T14:44:24;6.27;;;3.87;;
21281;SDS011;10800;53.096;18.328;2023-04-24T14:49:50;4.70;;;2.83;;
21281;SDS011;10800;53.096;18.328;2023-04-24T14:55:03;15.80;;;4.50;;
21281;SDS011;10800;53.096;18.328;2023-04-24T15:00:18;3.63;;;2.27;;
21281;SDS011;10800;53.096;18.328;2023-04-24T15:05:51;5.20;;;2.97;;
21281;SDS011;10800;53.096;18.328;2023-04-24T15:11:03;3.57;;;2.63;;
21281;SDS011;10800;53.096;18.328;2023-04-24T15:16:13;5.43;;;3.27;;
21281;SDS011;10800;53.096;18.328;2023-04-24T15:21:53;7.60;;;3.60;;
21281;SDS011;10800;53.096;18.328;2023-04-24T15:27:08;3.67;;;2.30;;
21281;SDS011;10800;53.096;18.328;2023-04-24T15:32:44;8.23;;;2.87;;
21281;SDS011;10800;53.096;18.328;2023-04-24T15:38:00;2.50;;;2.20;;
21281;SDS011;10800;53.096;18.328;2023-04-24T15:43:16;2.10;;;1.73;;
21281;SDS011;10800;53.096;18.328;2023-04-24T15:48:24;8.00;;;2.60;;
21281;SDS011;10800;53.096;18.328;2023-04-24T15:53:46;3.37;;;2.03;;
21281;SDS011;10800;53.096;18.328;2023-04-24T15:59:06;4.77;;;1.97;;
21281;SDS011;10800;53.096;18.328;2023-04-24T16:04:23;3.23;;;2.00;;
21281;SDS011;10800;53.096;18.328;2023-04-24T16:09:30;2.60;;;2.00;;
21281;SDS011;10800;53.096;18.328;2023-04-24T16:14:36;2.07;;;1.87;;
21281;SDS011;10800;53.096;18.328;2023-04-24T16:19:41;6.20;;;2.30;;
21281;SDS011;10800;53.096;18.328;2023-04-24T16:24:47;7.07;;;2.37;;
21281;SDS011;10800;53.096;18.328;2023-04-24T16:29:52;4.73;;;2.07;;
21281;SDS011;10800;53.096;18.328;2023-04-24T16:34:59;2.07;;;1.70;;
21281;SDS011;10800;53.096;18.328;2023-04-24T16:40:05;3.30;;;2.27;;
21281;SDS011;10800;53.096;18.328;2023-04-24T16:45:12;2.00;;;1.80;;
21281;SDS011;10800;53.096;18.328;2023-04-24T16:50:18;2.53;;;1.90;;
21281;SDS011;10800;53.096;18.328;2023-04-24T16:55:24;4.33;;;2.10;;
21281;SDS011;10800;53.096;18.328;2023-04-24T17:00:30;3.17;;;2.17;;
21281;SDS011;10800;53.096;18.328;2023-04-24T17:05:35;3.90;;;1.93;;
21281;SDS011;10800;53.096;18.328;2023-04-24T17:10:40;2.47;;;1.10;;
21281;SDS011;10800;53.096;18.328;2023-04-24T17:15:46;1.80;;;1.10;;
21281;SDS011;10800;53.096;18.328;2023-04-24T17:20:51;3.43;;;1.80;;
21281;SDS011;10800;53.096;18.328;2023-04-24T17:25:56;1.80;;;1.50;;
21281;SDS011;10800;53.096;18.328;2023-04-24T17:31:02;2.43;;;1.87;;
21281;SDS011;10800;53.096;18.328;2023-04-24T17:36:07;2.73;;;1.97;;
21281;SDS011;10800;53.096;18.328;2023-04-24T17:41:12;25.23;;;8.37;;
21281;SDS011;10800;53.096;18.328;2023-04-24T17:46:19;13.70;;;6.73;;
21281;SDS011;10800;53.096;18.328;2023-04-24T17:51:35;22.73;;;9.43;;
21281;SDS011;10800;53.096;18.328;2023-04-24T17:56:50;26.60;;;9.53;;
21281;SDS011;10800;53.096;18.328;2023-04-24T18:01:56;77.07;;;30.27;;
21281;SDS011;10800;53.096;18.328;2023-04-24T18:07:01;17.23;;;5.57;;
21281;SDS011;10800;53.096;18.328;2023-04-24T18:12:06;11.00;;;6.00;;
21281;SDS011;10800;53.096;18.328;2023-04-24T18:17:13;9.83;;;4.43;;
21281;SDS011;10800;53.096;18.328;2023-04-24T18:22:18;10.47;;;4.63;;
21281;SDS011;10800;53.096;18.328;2023-04-24T18:27:23;16.43;;;6.10;;
21281;SDS011;10800;53.096;18.328;2023-04-24T18:32:30;20.20;;;5.87;;
21281;SDS011;10800;53.096;18.328;2023-04-24T18:37:36;10.60;;;4.83;;
21281;SDS011;10800;53.096;18.328;2023-04-24T18:42:48;11.43;;;4.53;;
21281;SDS011;10800;53.096;18.328;2023-04-24T18:48:02;14.37;;;4.77;;
21281;SDS011;10800;53.096;18.328;2023-04-24T18:53:10;7.03;;;4.20;;
21281;SDS011;10800;53.096;18.328;2023-04-24T18:58:17;3.77;;;2.63;;
21281;SDS011;10800;53.096;18.328;2023-04-24T19:03:23;7.57;;;3.10;;
21281;SDS011;10800;53.096;18.328;2023-04-24T19:08:30;5.07;;;3.20;;
21281;SDS011;10800;53.096;18.328;2023-04-24T19:19:29;6.03;;;3.53;;
21281;SDS011;10800;53.096;18.328;2023-04-24T19:24:39;10.53;;;4.30;;
21281;SDS011;10800;53.096;18.328;2023-04-24T19:29:47;10.47;;;4.73;;
21281;SDS011;10800;53.096;18.328;2023-04-24T19:35:08;8.63;;;4.53;;
21281;SDS011;10800;53.096;18.328;2023-04-24T19:40:28;8.03;;;3.70;;
21281;SDS011;10800;53.096;18.328;2023-04-24T19:45:44;7.93;;;4.00;;
21281;SDS011;10800;53.096;18.328;2023-04-24T19:51:07;9.70;;;4.93;;
21281;SDS011;10800;53.096;18.328;2023-04-24T19:56:49;71.50;;;21.33;;
21281;SDS011;10800;53.096;18.328;2023-04-24T20:02:21;36.40;;;12.63;;
21281;SDS011;10800;53.096;18.328;2023-04-24T20:07:59;17.40;;;7.63;;
21281;SDS011;10800;53.096;18.328;2023-04-24T20:13:50;22.37;;;8.33;;
21281;SDS011;10800;53.096;18.328;2023-04-24T20:19:19;9.20;;;5.87;;
21281;SDS011;10800;53.096;18.328;2023-04-24T20:24:56;10.10;;;4.30;;
21281;SDS011;10800;53.096;18.328;2023-04-24T20:30:07;12.17;;;3.73;;
21281;SDS011;10800;53.096;18.328;2023-04-24T20:35:22;3.93;;;3.17;;
21281;SDS011;10800;53.096;18.328;2023-04-24T20:40:31;6.60;;;3.23;;
21281;SDS011;10800;53.096;18.328;2023-04-24T20:45:51;4.43;;;3.27;;
21281;SDS011;10800;53.096;18.328;2023-04-24T20:51:31;4.70;;;3.40;;
21281;SDS011;10800;53.096;18.328;2023-04-24T20:56:45;5.60;;;3.87;;
21281;SDS011;10800;53.096;18.328;2023-04-24T21:02:17;7.43;;;4.20;;
21281;SDS011;10800;53.096;18.328;2023-04-24T21:07:25;8.13;;;3.90;;
21281;SDS011;10800;53.096;18.328;2023-04-24T21:13:12;11.10;;;4.87;;
21281;SDS011;10800;53.096;18.328;2023-04-24T21:18:46;4.83;;;3.37;;
21281;SDS011;10800;53.096;18.328;2023-04-24T21:24:30;4.70;;;3.40;;
21281;SDS011;10800;53.096;18.328;2023-04-24T21:30:12;4.87;;;3.17;;
21281;SDS011;10800;53.096;18.328;2023-04-24T21:35:32;5.07;;;3.27;;
21281;SDS011;10800;53.096;18.328;2023-04-24T21:41:02;5.40;;;3.27;;
21281;SDS011;10800;53.096;18.328;2023-04-24T21:46:39;5.47;;;3.77;;
21281;SDS011;10800;53.096;18.328;2023-04-24T21:51:56;5.53;;;3.70;;
21281;SDS011;10800;53.096;18.328;2023-04-24T21:57:27;5.80;;;3.50;;
21281;SDS011;10800;53.096;18.328;2023-04-24T22:02:47;4.23;;;2.87;;
21281;SDS011;10800;53.096;18.328;2023-04-24T22:08:36;7.40;;;2.80;;
21281;SDS011;10800;53.096;18.328;2023-04-24T22:14:15;4.53;;;3.20;;
21281;SDS011;10800;53.096;18.328;2023-04-24T22:19:33;5.27;;;2.77;;
21281;SDS011;10800;53.096;18.328;2023-04-24T22:24:54;3.30;;;2.10;;
21281;SDS011;10800;53.096;18.328;2023-04-24T22:30:35;3.83;;;2.80;;
21281;SDS011;10800;53.096;18.328;2023-04-24T22:36:09;3.13;;;2.27;;
21281;SDS011;10800;53.096;18.328;2023-04-24T22:41:41;5.80;;;2.47;;
21281;SDS011;10800;53.096;18.328;2023-04-24T22:47:11;2.90;;;1.90;;
21281;SDS011;10800;53.096;18.328;2023-04-24T22:52:48;6.17;;;2.00;;
21281;SDS011;10800;53.096;18.328;2023-04-24T22:58:01;5.37;;;2.17;;
21281;SDS011;10800;53.096;18.328;2023-04-24T23:03:15;3.57;;;2.23;;
21281;SDS011;10800;53.096;18.328;2023-04-24T23:08:44;4.23;;;2.23;;
21281;SDS011;10800;53.096;18.328;2023-04-24T23:13:54;2.67;;;2.13;;
21281;SDS011;10800;53.096;18.328;2023-04-24T23:19:11;2.37;;;1.90;;
21281;SDS011;10800;53.096;18.328;2023-04-24T23:24:33;3.23;;;2.17;;
21281;SDS011;10800;53.096;18.328;2023-04-24T23:29:43;3.10;;;1.83;;
21281;SDS011;10800;53.096;18.328;2023-04-24T23:35:07;3.07;;;1.83;;
21281;SDS011;10800;53.096;18.328;2023-04-24T23:40:20;2.97;;;1.57;;
21281;SDS011;10800;53.096;18.328;2023-04-24T23:45:48;1.60;;;1.00;;
21281;SDS011;10800;53.096;18.328;2023-04-24T23:51:21;1.83;;;1.30;;
21281;SDS011;10800;53.096;18.328;2023-04-24T23:56:37;1.90;;;1.70;;
